PWSweather.com
Personal Weather Stations
Station Observations
REUBENS
Camas Prairie, Reubens, ID 83548

Camas PrairieReubens, ID 83548

Lat: 46.35417, Lon: -116.53167

Elevation: 3480

Station Type: Davis VantagePro 2

http://www.theobrienranch.com/wx/wx.htm

High Low Average
Temperature 55.8°F13.2°F 38.4°F3.6°F 46.7°F8.2°F
Dew Point 45.4°F7.4°F 35.3°F1.8°F 40.1°F4.5°F
Winds 9.2 mph W14.8 mph W Calm Calm 2.2 mph 3.5 mph
Wind Gusts 11.5 mph18.5 mph -- 3.5 mph5.6 mph
Humidity 90% 60% 78%
Pressure 30.10 in1019.30 in 29.99 in1015.60 in -
Precipitation 0.04 in1.00 in - -
Hour Temp Dew Point Humidity Winds Wind Gusts Pressure Precip Precip Rate Daily Precip Total
12:00 AM 44.5°F6.9°C 38.1°F3.4°C 78% 4.6 mph WNW7.4 kmh WNW 5.8 mph9.3 kmh 29.99 in1015.6 mb - 0.00 in0.0 mm 0.00 in0.0 mm
12:15 AM 44.4°F6.9°C 38.0°F3.3°C 78% 4.6 mph WNW7.4 kmh WNW 5.8 mph9.3 kmh 29.99 in1015.6 mb - 0.00 in0.0 mm 0.00 in0.0 mm
12:30 AM 44.4°F6.9°C 38.3°F3.5°C 79% 6.9 mph WNW11.1 kmh WNW 11.5 mph18.5 kmh 29.99 in1015.6 mb - 0.00 in0.0 mm 0.00 in0.0 mm
12:45 AM 44.5°F6.9°C 38.1°F3.4°C 78% 9.2 mph W14.8 kmh W 11.5 mph18.5 kmh 29.99 in1015.6 mb - 0.00 in0.0 mm 0.00 in0.0 mm
01:00 AM 44.1°F6.7°C 38.0°F3.3°C 79% 3.5 mph W5.6 kmh W 3.5 mph5.6 kmh 29.99 in1015.6 mb - 0.00 in0.0 mm 0.00 in0.0 mm
01:15 AM 43.6°F6.4°C 37.8°F3.2°C 80% 4.6 mph W7.4 kmh W 4.6 mph7.4 kmh 30.00 in1015.9 mb - 0.00 in0.0 mm 0.00 in0.0 mm
01:30 AM 42.9°F6.1°C 37.5°F3.1°C 81% 1.2 mph WNW1.9 kmh WNW 3.5 mph5.6 kmh 30.00 in1015.9 mb - 0.00 in0.0 mm 0.00 in0.0 mm
01:45 AM 42.5°F5.8°C 37.4°F3.0°C 82% 2.3 mph WNW3.7 kmh WNW 3.5 mph5.6 kmh 30.00 in1015.9 mb - 0.00 in0.0 mm 0.00 in0.0 mm
02:00 AM 42.2°F5.7°C 37.4°F3.0°C 83% 5.8 mph WNW9.3 kmh WNW 6.9 mph11.1 kmh 30.01 in1016.3 mb - 0.00 in0.0 mm 0.00 in0.0 mm
02:15 AM 41.9°F5.5°C 37.1°F2.8°C 83% Calm Calm -- 30.01 in1016.3 mb - 0.00 in0.0 mm 0.00 in0.0 mm
02:30 AM 41.9°F5.5°C 37.4°F3.0°C 84% 1.2 mph WNW1.9 kmh WNW 1.2 mph1.9 kmh 30.01 in1016.3 mb - 0.00 in0.0 mm 0.00 in0.0 mm
02:45 AM 42.0°F5.6°C 37.5°F3.1°C 84% 1.2 mph WNW1.9 kmh WNW 3.5 mph5.6 kmh 30.01 in1016.3 mb - 0.00 in0.0 mm 0.00 in0.0 mm
03:00 AM 42.0°F5.6°C 37.5°F3.1°C 84% Calm Calm -- 30.02 in1016.6 mb - 0.00 in0.0 mm 0.00 in0.0 mm
03:15 AM 41.6°F5.3°C 37.1°F2.8°C 84% 2.3 mph WNW3.7 kmh WNW 3.5 mph5.6 kmh 30.03 in1016.9 mb - 0.00 in0.0 mm 0.00 in0.0 mm
03:30 AM 41.3°F5.2°C 36.8°F2.7°C 84% Calm Calm -- 30.04 in1017.3 mb - 0.00 in0.0 mm 0.00 in0.0 mm
03:45 AM 40.6°F4.8°C 36.4°F2.4°C 85% Calm Calm -- 30.04 in1017.3 mb - 0.00 in0.0 mm 0.00 in0.0 mm
04:00 AM 40.5°F4.7°C 36.3°F2.4°C 85% Calm Calm 2.3 mph3.7 kmh 30.04 in1017.3 mb - 0.00 in0.0 mm 0.00 in0.0 mm
04:15 AM 40.7°F4.8°C 36.5°F2.5°C 85% Calm Calm 2.3 mph3.7 kmh 30.06 in1017.9 mb - 0.00 in0.0 mm 0.00 in0.0 mm
04:30 AM 40.5°F4.7°C 36.4°F2.4°C 85% Calm Calm -- 30.07 in1018.3 mb - 0.00 in0.0 mm 0.00 in0.0 mm
04:45 AM 40.0°F4.4°C 35.9°F2.2°C 85% 1.2 mph WNW1.9 kmh WNW 1.2 mph1.9 kmh 30.07 in1018.3 mb - 0.00 in0.0 mm 0.00 in0.0 mm
05:00 AM 38.9°F3.8°C 35.4°F1.9°C 87% Calm Calm -- 30.07 in1018.3 mb - 0.00 in0.0 mm 0.00 in0.0 mm
05:15 AM 38.8°F3.8°C 35.6°F2.0°C 88% Calm Calm -- 30.07 in1018.3 mb - 0.00 in0.0 mm 0.00 in0.0 mm
05:30 AM 38.5°F3.6°C 35.3°F1.8°C 88% Calm Calm -- 30.07 in1018.3 mb - 0.00 in0.0 mm 0.00 in0.0 mm
05:45 AM 38.4°F3.6°C 35.4°F1.9°C 89% Calm Calm -- 30.08 in1018.6 mb - 0.00 in0.0 mm 0.00 in0.0 mm
06:00 AM 38.6°F3.7°C 35.6°F2.0°C 89% Calm Calm -- 30.07 in1018.3 mb - 0.00 in0.0 mm 0.00 in0.0 mm
06:15 AM 39.7°F4.3°C 36.7°F2.6°C 89% Calm Calm -- 30.08 in1018.6 mb - 0.00 in0.0 mm 0.00 in0.0 mm
06:30 AM 41.1°F5.1°C 37.8°F3.2°C 88% Calm Calm -- 30.08 in1018.6 mb - 0.00 in0.0 mm 0.00 in0.0 mm
06:45 AM 42.9°F6.1°C 39.3°F4.1°C 87% Calm Calm 1.2 mph1.9 kmh 30.07 in1018.3 mb - 0.00 in0.0 mm 0.00 in0.0 mm
07:00 AM 44.6°F7.0°C 39.8°F4.3°C 83% Calm Calm -- 30.07 in1018.3 mb - 0.00 in0.0 mm 0.00 in0.0 mm
07:15 AM 46.0°F7.8°C 40.1°F4.5°C 80% 1.2 mph WNW1.9 kmh WNW 2.3 mph3.7 kmh 30.08 in1018.6 mb - 0.00 in0.0 mm 0.00 in0.0 mm
07:30 AM 45.3°F7.4°C 38.8°F3.8°C 78% 2.3 mph NNW3.7 kmh NNW 3.5 mph5.6 kmh 30.08 in1018.6 mb - 0.00 in0.0 mm 0.00 in0.0 mm
07:45 AM 46.1°F7.8°C 40.0°F4.4°C 79% 2.3 mph NW3.7 kmh NW 3.5 mph5.6 kmh 30.08 in1018.6 mb - 0.00 in0.0 mm 0.00 in0.0 mm
08:00 AM 48.3°F9.1°C 41.1°F5.1°C 76% 3.5 mph NW5.6 kmh NW 3.5 mph5.6 kmh 30.07 in1018.3 mb - 0.00 in0.0 mm 0.00 in0.0 mm
08:15 AM 50.0°F10.0°C 42.7°F5.9°C 76% Calm Calm -- 30.07 in1018.3 mb - 0.00 in0.0 mm 0.00 in0.0 mm
08:30 AM 50.7°F10.4°C 43.1°F6.2°C 75% Calm Calm -- 30.07 in1018.3 mb - 0.00 in0.0 mm 0.00 in0.0 mm
08:45 AM 51.2°F10.7°C 42.8°F6.0°C 73% Calm Calm 1.2 mph1.9 kmh 30.07 in1018.3 mb - 0.00 in0.0 mm 0.00 in0.0 mm
09:00 AM 52.0°F11.1°C 42.9°F6.1°C 71% 2.3 mph NNW3.7 kmh NNW 3.5 mph5.6 kmh 30.07 in1018.3 mb - 0.00 in0.0 mm 0.00 in0.0 mm
09:15 AM 52.4°F11.3°C 42.9°F6.1°C 70% 1.2 mph N1.9 kmh N 1.2 mph1.9 kmh 30.07 in1018.3 mb - 0.00 in0.0 mm 0.00 in0.0 mm
09:30 AM 52.4°F11.3°C 42.5°F5.8°C 69% Calm Calm -- 30.07 in1018.3 mb - 0.00 in0.0 mm 0.00 in0.0 mm
09:45 AM 53.7°F12.1°C 44.2°F6.8°C 70% 1.2 mph N1.9 kmh N 5.8 mph9.3 kmh 30.06 in1017.9 mb - 0.00 in0.0 mm 0.00 in0.0 mm
10:00 AM 55.8°F13.2°C 45.4°F7.4°C 68% 1.2 mph N1.9 kmh N 3.5 mph5.6 kmh 30.05 in1017.6 mb - 0.00 in0.0 mm 0.00 in0.0 mm
10:15 AM 55.1°F12.8°C 45.1°F7.3°C 69% Calm Calm 5.8 mph9.3 kmh 30.06 in1017.9 mb - 0.00 in0.0 mm 0.00 in0.0 mm
10:30 AM 55.7°F13.2°C 42.9°F6.1°C 62% 2.3 mph N3.7 kmh N 2.3 mph3.7 kmh 30.06 in1017.9 mb - 0.00 in0.0 mm 0.00 in0.0 mm
10:45 AM 54.5°F12.5°C 43.8°F6.6°C 67% 2.3 mph N3.7 kmh N 3.5 mph5.6 kmh 30.06 in1017.9 mb - 0.00 in0.0 mm 0.00 in0.0 mm
11:00 AM 54.3°F12.4°C 42.8°F6.0°C 65% 1.2 mph N1.9 kmh N 4.6 mph7.4 kmh 30.07 in1018.3 mb - 0.00 in0.0 mm 0.00 in0.0 mm
11:15 AM 53.5°F11.9°C 41.6°F5.3°C 64% 1.2 mph N1.9 kmh N 8.1 mph13.0 kmh 30.07 in1018.3 mb - 0.00 in0.0 mm 0.00 in0.0 mm
11:30 AM 53.4°F11.9°C 41.9°F5.5°C 65% 2.3 mph N3.7 kmh N 4.6 mph7.4 kmh 30.07 in1018.3 mb - 0.00 in0.0 mm 0.00 in0.0 mm
11:45 AM 53.5°F11.9°C 41.6°F5.3°C 64% 2.3 mph NE3.7 kmh NE 3.5 mph5.6 kmh 30.07 in1018.3 mb - 0.00 in0.0 mm 0.00 in0.0 mm
12:00 PM 52.8°F11.6°C 41.7°F5.4°C 66% 1.2 mph NW1.9 kmh NW 4.6 mph7.4 kmh 30.07 in1018.3 mb - 0.00 in0.0 mm 0.00 in0.0 mm
12:15 PM 54.4°F12.4°C 42.5°F5.8°C 64% Calm Calm -- 30.06 in1017.9 mb - 0.00 in0.0 mm 0.00 in0.0 mm
12:30 PM 54.8°F12.7°C 42.0°F5.6°C 62% 1.2 mph N1.9 kmh N 3.5 mph5.6 kmh 30.06 in1017.9 mb - 0.00 in0.0 mm 0.00 in0.0 mm
12:45 PM 54.5°F12.5°C 40.9°F4.9°C 60% 2.3 mph N3.7 kmh N 3.5 mph5.6 kmh 30.06 in1017.9 mb - 0.00 in0.0 mm 0.00 in0.0 mm
01:00 PM 53.8°F12.1°C 41.5°F5.3°C 63% 1.2 mph NW1.9 kmh NW 2.3 mph3.7 kmh 30.05 in1017.6 mb - 0.00 in0.0 mm 0.00 in0.0 mm
01:15 PM 53.2°F11.8°C 43.3°F6.3°C 69% 2.3 mph NW3.7 kmh NW 3.5 mph5.6 kmh 30.07 in1018.3 mb - 0.00 in0.0 mm 0.00 in0.0 mm
01:30 PM 53.5°F11.9°C 43.2°F6.2°C 68% 3.5 mph NW5.6 kmh NW 3.5 mph5.6 kmh 30.06 in1017.9 mb - 0.00 in0.0 mm 0.00 in0.0 mm
01:45 PM 53.3°F11.8°C 42.2°F5.7°C 66% 3.5 mph NW5.6 kmh NW 9.2 mph14.8 kmh 30.07 in1018.3 mb - 0.00 in0.0 mm 0.00 in0.0 mm
02:00 PM 52.6°F11.4°C 41.2°F5.1°C 65% 3.5 mph N5.6 kmh N 10.4 mph16.7 kmh 30.07 in1018.3 mb - 0.00 in0.0 mm 0.00 in0.0 mm
02:15 PM 49.2°F9.6°C 39.4°F4.1°C 69% 6.9 mph ENE11.1 kmh ENE 9.2 mph14.8 kmh 30.09 in1019.0 mb - 0.00 in0.0 mm 0.00 in0.0 mm
02:30 PM 47.7°F8.7°C 39.5°F4.2°C 73% 4.6 mph ENE7.4 kmh ENE 6.9 mph11.1 kmh 30.09 in1019.0 mb - 0.00 in0.0 mm 0.00 in0.0 mm
02:45 PM 48.1°F8.9°C 39.9°F4.4°C 73% 5.8 mph ENE9.3 kmh ENE 6.9 mph11.1 kmh 30.09 in1019.0 mb - 0.00 in0.0 mm 0.00 in0.0 mm
03:00 PM 47.2°F8.4°C 40.7°F4.8°C 78% Calm Calm -- 30.09 in1019.0 mb - 0.00 in0.0 mm 0.00 in0.0 mm
03:15 PM 47.7°F8.7°C 40.5°F4.7°C 76% Calm Calm -- 30.10 in1019.3 mb - 0.00 in0.0 mm 0.00 in0.0 mm
03:30 PM 47.8°F8.8°C 40.6°F4.8°C 76% Calm Calm -- 30.09 in1019.0 mb - 0.01 in0.3 mm 0.01 in0.3 mm
03:45 PM 47.0°F8.3°C 40.8°F4.9°C 79% 2.3 mph NE3.7 kmh NE 2.3 mph3.7 kmh 30.09 in1019.0 mb - 0.00 in0.0 mm 0.01 in0.3 mm
04:00 PM 47.2°F8.4°C 41.0°F5.0°C 79% 1.2 mph NE1.9 kmh NE 1.2 mph1.9 kmh 30.09 in1019.0 mb - 0.00 in0.0 mm 0.01 in0.3 mm
04:15 PM 47.5°F8.6°C 41.3°F5.2°C 79% 2.3 mph NE3.7 kmh NE 3.5 mph5.6 kmh 30.09 in1019.0 mb - 0.00 in0.0 mm 0.01 in0.3 mm
04:30 PM 47.8°F8.8°C 42.3°F5.7°C 81% 2.3 mph NE3.7 kmh NE 3.5 mph5.6 kmh 30.09 in1019.0 mb - 0.00 in0.0 mm 0.01 in0.3 mm
04:45 PM 47.6°F8.7°C 42.7°F5.9°C 83% 2.3 mph NNW3.7 kmh NNW 3.5 mph5.6 kmh 30.09 in1019.0 mb - 0.00 in0.0 mm 0.01 in0.3 mm
05:00 PM 47.5°F8.6°C 42.9°F6.1°C 84% Calm Calm 1.2 mph1.9 kmh 30.09 in1019.0 mb - 0.00 in0.0 mm 0.01 in0.3 mm
05:15 PM 47.8°F8.8°C 42.9°F6.1°C 83% Calm Calm 1.2 mph1.9 kmh 30.08 in1018.6 mb - 0.00 in0.0 mm 0.01 in0.3 mm
05:30 PM 49.0°F9.4°C 42.8°F6.0°C 79% 2.3 mph E3.7 kmh E 5.8 mph9.3 kmh 30.08 in1018.6 mb - 0.00 in0.0 mm 0.01 in0.3 mm
05:45 PM 49.3°F9.6°C 42.1°F5.6°C 76% 2.3 mph NNE3.7 kmh NNE 4.6 mph7.4 kmh 30.08 in1018.6 mb - 0.00 in0.0 mm 0.01 in0.3 mm
06:00 PM 49.2°F9.6°C 41.6°F5.3°C 75% 1.2 mph NNE1.9 kmh NNE 3.5 mph5.6 kmh 30.08 in1018.6 mb - 0.00 in0.0 mm 0.01 in0.3 mm
06:15 PM 49.2°F9.6°C 42.3°F5.7°C 77% Calm Calm -- 30.05 in1017.6 mb - 0.00 in0.0 mm 0.01 in0.3 mm
06:30 PM 48.9°F9.4°C 41.7°F5.4°C 76% 2.3 mph NNE3.7 kmh NNE 3.5 mph5.6 kmh 30.05 in1017.6 mb - 0.00 in0.0 mm 0.01 in0.3 mm
06:45 PM 48.3°F9.1°C 42.1°F5.6°C 79% 4.6 mph NE7.4 kmh NE 6.9 mph11.1 kmh 30.05 in1017.6 mb - 0.00 in0.0 mm 0.01 in0.3 mm
07:00 PM 47.7°F8.7°C 41.2°F5.1°C 78% 5.8 mph NE9.3 kmh NE 8.1 mph13.0 kmh 30.05 in1017.6 mb - 0.00 in0.0 mm 0.01 in0.3 mm
07:15 PM 47.1°F8.4°C 41.2°F5.1°C 80% 2.3 mph NE3.7 kmh NE 3.5 mph5.6 kmh 30.04 in1017.3 mb - 0.00 in0.0 mm 0.01 in0.3 mm
07:30 PM 46.9°F8.3°C 41.4°F5.2°C 81% Calm Calm -- 30.04 in1017.3 mb - 0.00 in0.0 mm 0.01 in0.3 mm
07:45 PM 46.8°F8.2°C 41.3°F5.2°C 81% 1.2 mph NE1.9 kmh NE 2.3 mph3.7 kmh 30.04 in1017.3 mb - 0.00 in0.0 mm 0.01 in0.3 mm
08:00 PM 46.7°F8.2°C 40.5°F4.7°C 79% Calm Calm -- 30.04 in1017.3 mb - 0.00 in0.0 mm 0.01 in0.3 mm
08:15 PM 46.5°F8.1°C 40.7°F4.8°C 80% Calm Calm -- 30.04 in1017.3 mb - 0.00 in0.0 mm 0.01 in0.3 mm
08:30 PM 46.7°F8.2°C 39.5°F4.2°C 76% 2.3 mph NE3.7 kmh NE 4.6 mph7.4 kmh 30.05 in1017.6 mb - 0.00 in0.0 mm 0.01 in0.3 mm
08:45 PM 46.2°F7.9°C 40.0°F4.4°C 79% 6.9 mph E11.1 kmh E 9.2 mph14.8 kmh 30.05 in1017.6 mb - 0.00 in0.0 mm 0.01 in0.3 mm
09:00 PM 45.7°F7.6°C 40.2°F4.6°C 81% 6.9 mph E11.1 kmh E 10.4 mph16.7 kmh 30.06 in1017.9 mb - 0.00 in0.0 mm 0.01 in0.3 mm
09:15 PM 45.3°F7.4°C 39.8°F4.3°C 81% 8.1 mph E13.0 kmh E 10.4 mph16.7 kmh 30.05 in1017.6 mb - 0.00 in0.0 mm 0.01 in0.3 mm
09:30 PM 44.8°F7.1°C 39.6°F4.2°C 82% 6.9 mph E11.1 kmh E 6.9 mph11.1 kmh 30.05 in1017.6 mb - 0.00 in0.0 mm 0.01 in0.3 mm
09:45 PM 44.3°F6.8°C 40.1°F4.5°C 85% 2.3 mph E3.7 kmh E 3.5 mph5.6 kmh 30.05 in1017.6 mb - 0.01 in0.3 mm 0.02 in0.5 mm
10:00 PM 44.4°F6.9°C 39.6°F4.2°C 83% 5.8 mph E9.3 kmh E 5.8 mph9.3 kmh 30.06 in1017.9 mb - 0.00 in0.0 mm 0.02 in0.5 mm
10:15 PM 44.2°F6.8°C 39.7°F4.3°C 84% 6.9 mph E11.1 kmh E 8.1 mph13.0 kmh 30.06 in1017.9 mb - 0.00 in0.0 mm 0.02 in0.5 mm
10:30 PM 43.5°F6.4°C 39.9°F4.4°C 87% 4.6 mph E7.4 kmh E 4.6 mph7.4 kmh 30.06 in1017.9 mb - 0.00 in0.0 mm 0.02 in0.5 mm
10:45 PM 43.1°F6.2°C 39.5°F4.2°C 87% 3.5 mph E5.6 kmh E 4.6 mph7.4 kmh 30.07 in1018.3 mb - 0.00 in0.0 mm 0.02 in0.5 mm
11:00 PM 42.6°F5.9°C 39.6°F4.2°C 89% 3.5 mph E5.6 kmh E 3.5 mph5.6 kmh 30.07 in1018.3 mb - 0.01 in0.3 mm 0.03 in0.8 mm
11:15 PM 42.2°F5.7°C 39.2°F4.0°C 89% 3.5 mph E5.6 kmh E 4.6 mph7.4 kmh 30.07 in1018.3 mb - 0.00 in0.0 mm 0.03 in0.8 mm
11:30 PM 41.9°F5.5°C 38.6°F3.7°C 88% 3.5 mph E5.6 kmh E 3.5 mph5.6 kmh 30.07 in1018.3 mb - 0.01 in0.3 mm 0.04 in1.0 mm
11:45 PM 41.6°F5.3°C 38.9°F3.8°C 90% 3.5 mph E5.6 kmh E 3.5 mph5.6 kmh 30.07 in1018.3 mb - 0.00 in0.0 mm 0.04 in1.0 mm